Looma, Australia

1:56 PM AWST on April 30, 2017 (GMT +0800)
Curtin | | Change Station

Elev 256 ft 17.58 °S, 123.83 °E | Updated 26 minutes ago

Mostly Cloudy
Mostly Cloudy
88 °F
Feels Like 86 °F
N
7
Wind Variable Wind from East

Today
High -- | Low -- °F
--% Chance of Precip.
Yesterday
High -- | Low -- °F
Precip. -- in
Pressure 29.86 in
Visibility 6.2 miles
Clouds Scattered Clouds 7800 ft
Overcast 9000 ft
Heat Index 86 °F
Dew Point 54 °F
Humidity 31%
Rainfall 0.00 in
Snow Depth Not available.
5:56 AM 5:24 PM
Waxing Crescent, 19% visible
METAR YCIN 300530Z AUTO 09006KT 070V140 9999 // SCT078 OVC090 31/12 Q1011
Pressure 29.86 in
Visibility 6.2 miles
Clouds Scattered Clouds 7800 ft
Overcast 9000 ft
Heat Index 86 °F
Dew Point 54 °F
Humidity 31%
Rainfall 0.00 in
Snow Depth Not available.
5:56 AM 5:24 PM
Waxing Crescent, 19% visible
METAR YCIN 300530Z AUTO 09006KT 070V140 9999 // SCT078 OVC090 31/12 Q1011

Get Severe Weather Alerts

Thanks for signing up!

Be on the lookout for a verification email in your inbox.

You'll start receiving the daily forecast at 8 AM.

×

10-Day Weather Forecast

×

Almanac

Astronomy

Apr. 30, 2017 Rise Set
Actual Time
Civil Twilight
Nautical Twilight
Astronomical Twilight
Moon
Length of Visible Light
Length of Day
Tomorrow will be .
, % of the Moon is Illuminated

Today's Extremes

Country Highs Country Lows

Community

WunderPhotos

WunderBlog® & News

Nearby

Air Quality

  Air Quality AQ Index Pollutant
Not available.

Snow Depth

Station Depth Elevation

Earthquake Activity

City Distance Mag. Time & Date
Minimum magnitude displayed is 2.5.

Coastal Water Temperatures

Place Temperature

Stations

Nearby Weather Stations

Station Location Temp. Windchill Dew Point Humidity Wind Precip. Elev Updated Type